sensor_id;sensor_type;location;lat;lon;timestamp;P1;durP1;ratioP1;P2;durP2;ratioP2
14766;SDS011;7475;53.558;9.970;2023-07-30T00:01:19;6.07;;;5.17;;
14766;SDS011;7475;53.558;9.970;2023-07-30T00:03:44;7.70;;;5.97;;
14766;SDS011;7475;53.558;9.970;2023-07-30T00:06:10;8.10;;;6.50;;
14766;SDS011;7475;53.558;9.970;2023-07-30T00:08:35;5.70;;;4.80;;
14766;SDS011;7475;53.558;9.970;2023-07-30T00:11:00;8.98;;;6.60;;
14766;SDS011;7475;53.558;9.970;2023-07-30T00:13:25;8.00;;;6.00;;
14766;SDS011;7475;53.558;9.970;2023-07-30T00:15:50;6.37;;;5.40;;
14766;SDS011;7475;53.558;9.970;2023-07-30T00:18:16;6.47;;;4.70;;
14766;SDS011;7475;53.558;9.970;2023-07-30T00:20:41;6.63;;;4.50;;
14766;SDS011;7475;53.558;9.970;2023-07-30T00:23:06;4.95;;;4.20;;
14766;SDS011;7475;53.558;9.970;2023-07-30T00:25:31;4.63;;;4.00;;
14766;SDS011;7475;53.558;9.970;2023-07-30T00:27:57;4.33;;;3.90;;
14766;SDS011;7475;53.558;9.970;2023-07-30T00:30:22;8.40;;;6.03;;
14766;SDS011;7475;53.558;9.970;2023-07-30T00:32:47;7.00;;;5.35;;
14766;SDS011;7475;53.558;9.970;2023-07-30T00:35:12;7.40;;;6.00;;
14766;SDS011;7475;53.558;9.970;2023-07-30T00:37:38;8.75;;;6.07;;
14766;SDS011;7475;53.558;9.970;2023-07-30T00:40:03;7.97;;;6.38;;
14766;SDS011;7475;53.558;9.970;2023-07-30T00:42:28;6.10;;;5.50;;
14766;SDS011;7475;53.558;9.970;2023-07-30T00:44:54;10.50;;;7.07;;
14766;SDS011;7475;53.558;9.970;2023-07-30T00:47:19;9.40;;;7.20;;
14766;SDS011;7475;53.558;9.970;2023-07-30T00:49:44;9.93;;;7.47;;
14766;SDS011;7475;53.558;9.970;2023-07-30T00:52:09;10.82;;;7.28;;
14766;SDS011;7475;53.558;9.970;2023-07-30T00:54:35;5.25;;;4.28;;
14766;SDS011;7475;53.558;9.970;2023-07-30T00:57:00;6.22;;;5.63;;
14766;SDS011;7475;53.558;9.970;2023-07-30T00:59:26;6.90;;;5.75;;
14766;SDS011;7475;53.558;9.970;2023-07-30T01:01:51;8.20;;;7.13;;
14766;SDS011;7475;53.558;9.970;2023-07-30T01:04:17;9.70;;;6.97;;
14766;SDS011;7475;53.558;9.970;2023-07-30T01:06:43;8.73;;;7.33;;
14766;SDS011;7475;53.558;9.970;2023-07-30T01:09:08;6.05;;;4.70;;
14766;SDS011;7475;53.558;9.970;2023-07-30T01:11:34;6.68;;;5.40;;
14766;SDS011;7475;53.558;9.970;2023-07-30T01:13:59;6.85;;;5.78;;
14766;SDS011;7475;53.558;9.970;2023-07-30T01:16:25;6.22;;;5.40;;
14766;SDS011;7475;53.558;9.970;2023-07-30T01:18:50;8.30;;;5.88;;
14766;SDS011;7475;53.558;9.970;2023-07-30T01:21:15;6.10;;;5.50;;
14766;SDS011;7475;53.558;9.970;2023-07-30T01:23:41;9.13;;;6.20;;
14766;SDS011;7475;53.558;9.970;2023-07-30T01:26:12;6.37;;;5.77;;
14766;SDS011;7475;53.558;9.970;2023-07-30T01:28:43;7.13;;;5.93;;
14766;SDS011;7475;53.558;9.970;2023-07-30T01:31:09;8.93;;;6.55;;
14766;SDS011;7475;53.558;9.970;2023-07-30T01:33:37;8.38;;;7.00;;
14766;SDS011;7475;53.558;9.970;2023-07-30T01:36:02;9.35;;;7.38;;
14766;SDS011;7475;53.558;9.970;2023-07-30T01:38:29;9.98;;;7.03;;
14766;SDS011;7475;53.558;9.970;2023-07-30T01:40:54;7.38;;;6.53;;
14766;SDS011;7475;53.558;9.970;2023-07-30T01:43:19;6.82;;;6.13;;
14766;SDS011;7475;53.558;9.970;2023-07-30T01:45:45;9.80;;;6.60;;
14766;SDS011;7475;53.558;9.970;2023-07-30T01:48:10;7.53;;;6.73;;
14766;SDS011;7475;53.558;9.970;2023-07-30T01:50:35;9.07;;;6.82;;
14766;SDS011;7475;53.558;9.970;2023-07-30T01:53:00;8.70;;;6.97;;
14766;SDS011;7475;53.558;9.970;2023-07-30T01:55:25;9.97;;;7.90;;
14766;SDS011;7475;53.558;9.970;2023-07-30T01:57:50;7.03;;;6.33;;
14766;SDS011;7475;53.558;9.970;2023-07-30T02:00:16;8.70;;;7.03;;
14766;SDS011;7475;53.558;9.970;2023-07-30T02:02:41;10.95;;;7.10;;
14766;SDS011;7475;53.558;9.970;2023-07-30T02:05:06;8.80;;;7.03;;
14766;SDS011;7475;53.558;9.970;2023-07-30T02:07:31;8.60;;;6.85;;
14766;SDS011;7475;53.558;9.970;2023-07-30T02:09:56;8.73;;;7.33;;
14766;SDS011;7475;53.558;9.970;2023-07-30T02:12:22;10.67;;;7.47;;
14766;SDS011;7475;53.558;9.970;2023-07-30T02:14:47;9.40;;;7.10;;
14766;SDS011;7475;53.558;9.970;2023-07-30T02:17:12;8.50;;;7.50;;
14766;SDS011;7475;53.558;9.970;2023-07-30T02:19:37;8.17;;;7.23;;
14766;SDS011;7475;53.558;9.970;2023-07-30T02:22:02;9.57;;;8.18;;
14766;SDS011;7475;53.558;9.970;2023-07-30T02:24:28;9.95;;;8.65;;
14766;SDS011;7475;53.558;9.970;2023-07-30T02:26:53;9.20;;;8.40;;
14766;SDS011;7475;53.558;9.970;2023-07-30T02:29:18;10.87;;;9.57;;
14766;SDS011;7475;53.558;9.970;2023-07-30T02:31:43;10.33;;;9.27;;
14766;SDS011;7475;53.558;9.970;2023-07-30T02:34:08;10.77;;;9.40;;
14766;SDS011;7475;53.558;9.970;2023-07-30T02:36:34;9.40;;;8.50;;
14766;SDS011;7475;53.558;9.970;2023-07-30T02:38:59;11.00;;;9.90;;
14766;SDS011;7475;53.558;9.970;2023-07-30T02:41:24;10.93;;;9.82;;
14766;SDS011;7475;53.558;9.970;2023-07-30T02:43:49;11.10;;;9.00;;
14766;SDS011;7475;53.558;9.970;2023-07-30T02:46:14;10.38;;;9.40;;
14766;SDS011;7475;53.558;9.970;2023-07-30T02:48:39;10.63;;;9.53;;
14766;SDS011;7475;53.558;9.970;2023-07-30T02:51:05;10.33;;;9.23;;
14766;SDS011;7475;53.558;9.970;2023-07-30T02:53:30;14.30;;;8.98;;
14766;SDS011;7475;53.558;9.970;2023-07-30T02:55:55;10.55;;;9.45;;
14766;SDS011;7475;53.558;9.970;2023-07-30T02:58:21;11.30;;;9.65;;
14766;SDS011;7475;53.558;9.970;2023-07-30T03:00:46;10.10;;;9.10;;
14766;SDS011;7475;53.558;9.970;2023-07-30T03:03:11;10.27;;;9.38;;
14766;SDS011;7475;53.558;9.970;2023-07-30T03:05:36;10.87;;;9.73;;
14766;SDS011;7475;53.558;9.970;2023-07-30T03:08:01;11.80;;;9.13;;
14766;SDS011;7475;53.558;9.970;2023-07-30T03:10:26;11.77;;;10.15;;
14766;SDS011;7475;53.558;9.970;2023-07-30T03:12:52;10.32;;;9.32;;
14766;SDS011;7475;53.558;9.970;2023-07-30T03:15:17;12.27;;;10.33;;
14766;SDS011;7475;53.558;9.970;2023-07-30T03:17:42;11.20;;;10.10;;
14766;SDS011;7475;53.558;9.970;2023-07-30T03:20:07;11.60;;;10.43;;
14766;SDS011;7475;53.558;9.970;2023-07-30T03:22:33;11.93;;;10.73;;
14766;SDS011;7475;53.558;9.970;2023-07-30T03:24:59;14.02;;;10.52;;
14766;SDS011;7475;53.558;9.970;2023-07-30T03:27:24;11.07;;;9.83;;
14766;SDS011;7475;53.558;9.970;2023-07-30T03:29:49;12.47;;;10.63;;
14766;SDS011;7475;53.558;9.970;2023-07-30T03:32:14;11.50;;;10.17;;
14766;SDS011;7475;53.558;9.970;2023-07-30T03:34:39;11.27;;;9.65;;
14766;SDS011;7475;53.558;9.970;2023-07-30T03:37:05;11.55;;;10.35;;
14766;SDS011;7475;53.558;9.970;2023-07-30T03:39:30;12.40;;;10.48;;
14766;SDS011;7475;53.558;9.970;2023-07-30T03:41:55;12.97;;;10.30;;
14766;SDS011;7475;53.558;9.970;2023-07-30T03:44:20;12.60;;;10.47;;
14766;SDS011;7475;53.558;9.970;2023-07-30T03:46:45;11.67;;;10.13;;
14766;SDS011;7475;53.558;9.970;2023-07-30T03:49:10;11.18;;;9.98;;
14766;SDS011;7475;53.558;9.970;2023-07-30T03:51:36;13.18;;;10.23;;
14766;SDS011;7475;53.558;9.970;2023-07-30T03:54:01;11.50;;;9.55;;
14766;SDS011;7475;53.558;9.970;2023-07-30T03:56:26;13.18;;;10.15;;
14766;SDS011;7475;53.558;9.970;2023-07-30T03:58:51;13.00;;;9.93;;
14766;SDS011;7475;53.558;9.970;2023-07-30T04:01:16;10.90;;;9.60;;
14766;SDS011;7475;53.558;9.970;2023-07-30T04:03:42;12.00;;;9.70;;
14766;SDS011;7475;53.558;9.970;2023-07-30T04:06:07;14.40;;;10.03;;
14766;SDS011;7475;53.558;9.970;2023-07-30T04:08:32;16.17;;;10.40;;
14766;SDS011;7475;53.558;9.970;2023-07-30T04:10:57;12.45;;;9.50;;
14766;SDS011;7475;53.558;9.970;2023-07-30T04:13:22;13.47;;;9.80;;
14766;SDS011;7475;53.558;9.970;2023-07-30T04:15:48;16.07;;;10.47;;
14766;SDS011;7475;53.558;9.970;2023-07-30T04:18:13;13.00;;;9.93;;
14766;SDS011;7475;53.558;9.970;2023-07-30T04:20:38;14.03;;;9.97;;
14766;SDS011;7475;53.558;9.970;2023-07-30T04:23:03;12.10;;;9.77;;
14766;SDS011;7475;53.558;9.970;2023-07-30T04:25:28;15.38;;;9.50;;
14766;SDS011;7475;53.558;9.970;2023-07-30T04:27:54;11.27;;;9.95;;
14766;SDS011;7475;53.558;9.970;2023-07-30T04:30:19;14.07;;;8.27;;
14766;SDS011;7475;53.558;9.970;2023-07-30T04:32:44;15.90;;;9.37;;
14766;SDS011;7475;53.558;9.970;2023-07-30T04:35:09;11.40;;;8.55;;
14766;SDS011;7475;53.558;9.970;2023-07-30T04:37:34;12.63;;;9.07;;
14766;SDS011;7475;53.558;9.970;2023-07-30T04:40:00;16.58;;;8.93;;
14766;SDS011;7475;53.558;9.970;2023-07-30T04:42:25;19.35;;;8.30;;
14766;SDS011;7475;53.558;9.970;2023-07-30T04:44:50;11.55;;;8.50;;
14766;SDS011;7475;53.558;9.970;2023-07-30T04:47:15;13.20;;;7.88;;
14766;SDS011;7475;53.558;9.970;2023-07-30T04:49:40;11.13;;;7.45;;
14766;SDS011;7475;53.558;9.970;2023-07-30T04:52:06;8.70;;;7.38;;
14766;SDS011;7475;53.558;9.970;2023-07-30T04:54:33;10.52;;;7.63;;
14766;SDS011;7475;53.558;9.970;2023-07-30T04:56:58;10.48;;;6.80;;
14766;SDS011;7475;53.558;9.970;2023-07-30T04:59:24;11.75;;;7.60;;
14766;SDS011;7475;53.558;9.970;2023-07-30T05:01:49;10.47;;;7.17;;
14766;SDS011;7475;53.558;9.970;2023-07-30T05:04:14;13.63;;;7.57;;
14766;SDS011;7475;53.558;9.970;2023-07-30T05:06:39;14.35;;;8.15;;
14766;SDS011;7475;53.558;9.970;2023-07-30T05:09:04;11.60;;;7.80;;
14766;SDS011;7475;53.558;9.970;2023-07-30T05:11:30;11.55;;;7.60;;
14766;SDS011;7475;53.558;9.970;2023-07-30T05:13:55;12.73;;;7.25;;
14766;SDS011;7475;53.558;9.970;2023-07-30T05:16:20;12.43;;;7.17;;
14766;SDS011;7475;53.558;9.970;2023-07-30T05:18:45;14.63;;;7.33;;
14766;SDS011;7475;53.558;9.970;2023-07-30T05:21:11;10.13;;;6.20;;
14766;SDS011;7475;53.558;9.970;2023-07-30T05:23:36;11.68;;;6.97;;
14766;SDS011;7475;53.558;9.970;2023-07-30T05:26:01;11.20;;;7.10;;
14766;SDS011;7475;53.558;9.970;2023-07-30T05:28:26;15.30;;;8.00;;
14766;SDS011;7475;53.558;9.970;2023-07-30T05:30:51;13.60;;;7.57;;
14766;SDS011;7475;53.558;9.970;2023-07-30T05:33:16;16.33;;;8.43;;
14766;SDS011;7475;53.558;9.970;2023-07-30T05:35:42;13.25;;;7.28;;
14766;SDS011;7475;53.558;9.970;2023-07-30T05:38:07;10.97;;;7.33;;
14766;SDS011;7475;53.558;9.970;2023-07-30T05:40:32;13.80;;;7.18;;
14766;SDS011;7475;53.558;9.970;2023-07-30T05:42:57;9.47;;;7.17;;
14766;SDS011;7475;53.558;9.970;2023-07-30T05:45:22;17.40;;;7.07;;
14766;SDS011;7475;53.558;9.970;2023-07-30T05:47:47;13.38;;;6.78;;
14766;SDS011;7475;53.558;9.970;2023-07-30T05:50:13;11.50;;;7.10;;
14766;SDS011;7475;53.558;9.970;2023-07-30T05:52:38;14.18;;;7.43;;
14766;SDS011;7475;53.558;9.970;2023-07-30T05:55:03;14.17;;;7.57;;
14766;SDS011;7475;53.558;9.970;2023-07-30T05:57:29;11.68;;;7.20;;
14766;SDS011;7475;53.558;9.970;2023-07-30T05:59:55;12.00;;;6.82;;
14766;SDS011;7475;53.558;9.970;2023-07-30T06:02:20;15.10;;;7.00;;
14766;SDS011;7475;53.558;9.970;2023-07-30T06:04:45;13.27;;;7.50;;
14766;SDS011;7475;53.558;9.970;2023-07-30T06:07:10;12.77;;;6.72;;
14766;SDS011;7475;53.558;9.970;2023-07-30T06:09:35;13.07;;;6.83;;
14766;SDS011;7475;53.558;9.970;2023-07-30T06:12:01;10.75;;;6.53;;
14766;SDS011;7475;53.558;9.970;2023-07-30T06:14:26;10.00;;;6.90;;
14766;SDS011;7475;53.558;9.970;2023-07-30T06:16:52;10.52;;;6.53;;
14766;SDS011;7475;53.558;9.970;2023-07-30T06:19:17;14.48;;;6.80;;
14766;SDS011;7475;53.558;9.970;2023-07-30T06:21:42;12.85;;;6.80;;
14766;SDS011;7475;53.558;9.970;2023-07-30T06:24:07;14.53;;;6.53;;
14766;SDS011;7475;53.558;9.970;2023-07-30T06:26:32;13.77;;;7.38;;
14766;SDS011;7475;53.558;9.970;2023-07-30T06:28:58;10.95;;;6.78;;
14766;SDS011;7475;53.558;9.970;2023-07-30T06:31:23;14.23;;;7.40;;
14766;SDS011;7475;53.558;9.970;2023-07-30T06:33:48;13.15;;;7.45;;
14766;SDS011;7475;53.558;9.970;2023-07-30T06:36:13;18.67;;;8.17;;
14766;SDS011;7475;53.558;9.970;2023-07-30T06:38:39;12.35;;;8.40;;
14766;SDS011;7475;53.558;9.970;2023-07-30T06:41:04;16.87;;;8.87;;
14766;SDS011;7475;53.558;9.970;2023-07-30T06:43:29;15.95;;;8.13;;
14766;SDS011;7475;53.558;9.970;2023-07-30T06:45:55;14.75;;;8.80;;
14766;SDS011;7475;53.558;9.970;2023-07-30T06:48:20;17.80;;;8.55;;
14766;SDS011;7475;53.558;9.970;2023-07-30T06:50:46;18.77;;;9.20;;
14766;SDS011;7475;53.558;9.970;2023-07-30T06:53:11;18.80;;;9.63;;
14766;SDS011;7475;53.558;9.970;2023-07-30T06:55:36;20.43;;;10.13;;
14766;SDS011;7475;53.558;9.970;2023-07-30T06:58:01;20.35;;;8.82;;
14766;SDS011;7475;53.558;9.970;2023-07-30T07:00:26;18.17;;;9.32;;
14766;SDS011;7475;53.558;9.970;2023-07-30T07:02:52;16.63;;;8.93;;
14766;SDS011;7475;53.558;9.970;2023-07-30T07:05:17;14.73;;;9.10;;
14766;SDS011;7475;53.558;9.970;2023-07-30T07:07:42;20.92;;;10.43;;
14766;SDS011;7475;53.558;9.970;2023-07-30T07:10:08;17.45;;;9.63;;
14766;SDS011;7475;53.558;9.970;2023-07-30T07:12:33;16.02;;;9.75;;
14766;SDS011;7475;53.558;9.970;2023-07-30T07:14:59;16.20;;;10.20;;
14766;SDS011;7475;53.558;9.970;2023-07-30T07:17:26;22.30;;;10.38;;
14766;SDS011;7475;53.558;9.970;2023-07-30T07:19:51;17.55;;;9.13;;
14766;SDS011;7475;53.558;9.970;2023-07-30T07:22:16;17.25;;;9.35;;
14766;SDS011;7475;53.558;9.970;2023-07-30T07:24:42;20.05;;;8.95;;
14766;SDS011;7475;53.558;9.970;2023-07-30T07:27:08;20.88;;;8.40;;
14766;SDS011;7475;53.558;9.970;2023-07-30T07:29:33;16.08;;;8.10;;
14766;SDS011;7475;53.558;9.970;2023-07-30T07:31:58;15.07;;;7.70;;
14766;SDS011;7475;53.558;9.970;2023-07-30T07:34:23;17.07;;;7.30;;
14766;SDS011;7475;53.558;9.970;2023-07-30T07:36:48;14.47;;;7.40;;
14766;SDS011;7475;53.558;9.970;2023-07-30T07:39:13;15.23;;;7.78;;
14766;SDS011;7475;53.558;9.970;2023-07-30T07:41:39;16.40;;;6.93;;
14766;SDS011;7475;53.558;9.970;2023-07-30T07:44:04;14.95;;;6.35;;
14766;SDS011;7475;53.558;9.970;2023-07-30T07:46:29;14.67;;;6.40;;
14766;SDS011;7475;53.558;9.970;2023-07-30T07:48:54;13.53;;;6.33;;
14766;SDS011;7475;53.558;9.970;2023-07-30T07:51:20;16.70;;;7.07;;
14766;SDS011;7475;53.558;9.970;2023-07-30T07:53:45;13.93;;;6.27;;
14766;SDS011;7475;53.558;9.970;2023-07-30T07:56:10;17.27;;;7.03;;
14766;SDS011;7475;53.558;9.970;2023-07-30T07:58:35;14.95;;;6.85;;
14766;SDS011;7475;53.558;9.970;2023-07-30T08:01:01;15.30;;;6.40;;
14766;SDS011;7475;53.558;9.970;2023-07-30T08:03:26;16.07;;;6.57;;
14766;SDS011;7475;53.558;9.970;2023-07-30T08:05:51;13.93;;;5.82;;
14766;SDS011;7475;53.558;9.970;2023-07-30T08:08:17;13.03;;;5.90;;
14766;SDS011;7475;53.558;9.970;2023-07-30T08:10:42;15.80;;;6.40;;
14766;SDS011;7475;53.558;9.970;2023-07-30T08:13:12;14.70;;;6.10;;
14766;SDS011;7475;53.558;9.970;2023-07-30T08:15:37;9.30;;;5.40;;
14766;SDS011;7475;53.558;9.970;2023-07-30T08:18:02;12.13;;;5.87;;
14766;SDS011;7475;53.558;9.970;2023-07-30T08:20:28;15.15;;;6.22;;
14766;SDS011;7475;53.558;9.970;2023-07-30T08:22:53;14.97;;;5.93;;
14766;SDS011;7475;53.558;9.970;2023-07-30T08:25:18;11.60;;;5.20;;
14766;SDS011;7475;53.558;9.970;2023-07-30T08:27:43;10.45;;;4.63;;
14766;SDS011;7475;53.558;9.970;2023-07-30T08:30:09;13.38;;;4.07;;
14766;SDS011;7475;53.558;9.970;2023-07-30T08:32:34;8.45;;;3.95;;
14766;SDS011;7475;53.558;9.970;2023-07-30T08:34:59;10.40;;;3.85;;
14766;SDS011;7475;53.558;9.970;2023-07-30T08:37:25;10.50;;;3.67;;
14766;SDS011;7475;53.558;9.970;2023-07-30T08:39:50;12.80;;;4.13;;
14766;SDS011;7475;53.558;9.970;2023-07-30T08:42:15;11.10;;;3.70;;
14766;SDS011;7475;53.558;9.970;2023-07-30T08:44:40;10.25;;;3.40;;
14766;SDS011;7475;53.558;9.970;2023-07-30T08:47:05;11.67;;;3.57;;
14766;SDS011;7475;53.558;9.970;2023-07-30T08:49:31;11.73;;;3.87;;
14766;SDS011;7475;53.558;9.970;2023-07-30T08:51:58;13.30;;;3.70;;
14766;SDS011;7475;53.558;9.970;2023-07-30T08:54:23;13.40;;;3.58;;
14766;SDS011;7475;53.558;9.970;2023-07-30T08:56:50;14.15;;;3.78;;
14766;SDS011;7475;53.558;9.970;2023-07-30T08:59:15;12.05;;;3.78;;
14766;SDS011;7475;53.558;9.970;2023-07-30T09:01:41;9.63;;;3.72;;
14766;SDS011;7475;53.558;9.970;2023-07-30T09:04:08;13.07;;;4.25;;
14766;SDS011;7475;53.558;9.970;2023-07-30T09:06:34;6.78;;;3.67;;
14766;SDS011;7475;53.558;9.970;2023-07-30T09:08:59;10.43;;;3.58;;
14766;SDS011;7475;53.558;9.970;2023-07-30T09:11:27;8.83;;;3.70;;
14766;SDS011;7475;53.558;9.970;2023-07-30T09:13:53;10.57;;;4.05;;
14766;SDS011;7475;53.558;9.970;2023-07-30T09:16:18;10.85;;;3.50;;
14766;SDS011;7475;53.558;9.970;2023-07-30T09:18:44;9.63;;;3.37;;
14766;SDS011;7475;53.558;9.970;2023-07-30T09:21:13;11.15;;;3.50;;
14766;SDS011;7475;53.558;9.970;2023-07-30T09:23:42;10.95;;;3.45;;
14766;SDS011;7475;53.558;9.970;2023-07-30T09:26:07;9.85;;;2.72;;
14766;SDS011;7475;53.558;9.970;2023-07-30T09:28:32;12.20;;;3.28;;
14766;SDS011;7475;53.558;9.970;2023-07-30T09:31:05;7.70;;;2.85;;
14766;SDS011;7475;53.558;9.970;2023-07-30T09:33:34;11.00;;;3.45;;
14766;SDS011;7475;53.558;9.970;2023-07-30T09:36:02;10.07;;;3.47;;
14766;SDS011;7475;53.558;9.970;2023-07-30T09:38:28;12.30;;;4.00;;
14766;SDS011;7475;53.558;9.970;2023-07-30T09:40:59;8.27;;;3.15;;
14766;SDS011;7475;53.558;9.970;2023-07-30T09:43:28;8.45;;;3.20;;
14766;SDS011;7475;53.558;9.970;2023-07-30T09:45:53;8.35;;;3.22;;
14766;SDS011;7475;53.558;9.970;2023-07-30T09:48:18;9.37;;;3.23;;
14766;SDS011;7475;53.558;9.970;2023-07-30T09:50:43;10.07;;;3.42;;
14766;SDS011;7475;53.558;9.970;2023-07-30T09:53:09;12.60;;;3.38;;
14766;SDS011;7475;53.558;9.970;2023-07-30T09:55:35;12.25;;;3.03;;
14766;SDS011;7475;53.558;9.970;2023-07-30T09:58:00;8.30;;;3.13;;
14766;SDS011;7475;53.558;9.970;2023-07-30T10:00:25;7.13;;;2.80;;
14766;SDS011;7475;53.558;9.970;2023-07-30T10:02:51;9.10;;;2.80;;
14766;SDS011;7475;53.558;9.970;2023-07-30T10:05:19;8.70;;;2.75;;
14766;SDS011;7475;53.558;9.970;2023-07-30T10:08:02;13.05;;;2.90;;
14766;SDS011;7475;53.558;9.970;2023-07-30T10:10:28;9.60;;;2.95;;
14766;SDS011;7475;53.558;9.970;2023-07-30T10:12:59;7.18;;;2.83;;
14766;SDS011;7475;53.558;9.970;2023-07-30T10:15:25;10.45;;;3.30;;
14766;SDS011;7475;53.558;9.970;2023-07-30T10:17:50;10.27;;;3.33;;
14766;SDS011;7475;53.558;9.970;2023-07-30T10:22:45;9.15;;;3.05;;
14766;SDS011;7475;53.558;9.970;2023-07-30T10:25:10;10.77;;;3.10;;
14766;SDS011;7475;53.558;9.970;2023-07-30T10:27:38;9.63;;;3.17;;
14766;SDS011;7475;53.558;9.970;2023-07-30T10:30:13;12.95;;;3.15;;
14766;SDS011;7475;53.558;9.970;2023-07-30T10:32:40;8.68;;;3.20;;
14766;SDS011;7475;53.558;9.970;2023-07-30T10:35:05;11.23;;;2.50;;
14766;SDS011;7475;53.558;9.970;2023-07-30T10:37:31;7.70;;;2.70;;
14766;SDS011;7475;53.558;9.970;2023-07-30T10:39:56;8.77;;;2.85;;
14766;SDS011;7475;53.558;9.970;2023-07-30T10:42:21;6.50;;;2.53;;
14766;SDS011;7475;53.558;9.970;2023-07-30T10:44:46;6.95;;;2.58;;
14766;SDS011;7475;53.558;9.970;2023-07-30T10:47:11;5.73;;;2.37;;
14766;SDS011;7475;53.558;9.970;2023-07-30T10:49:37;8.98;;;2.65;;
14766;SDS011;7475;53.558;9.970;2023-07-30T10:52:03;10.13;;;2.63;;
14766;SDS011;7475;53.558;9.970;2023-07-30T10:54:32;7.85;;;2.70;;
14766;SDS011;7475;53.558;9.970;2023-07-30T10:56:58;7.13;;;2.38;;
14766;SDS011;7475;53.558;9.970;2023-07-30T10:59:23;8.93;;;2.63;;
14766;SDS011;7475;53.558;9.970;2023-07-30T11:01:48;7.10;;;2.57;;
14766;SDS011;7475;53.558;9.970;2023-07-30T11:04:14;6.83;;;2.87;;
14766;SDS011;7475;53.558;9.970;2023-07-30T11:06:44;6.32;;;2.45;;
14766;SDS011;7475;53.558;9.970;2023-07-30T11:09:17;6.90;;;2.53;;
14766;SDS011;7475;53.558;9.970;2023-07-30T11:11:43;7.45;;;2.47;;
14766;SDS011;7475;53.558;9.970;2023-07-30T11:14:08;8.77;;;2.53;;
14766;SDS011;7475;53.558;9.970;2023-07-30T11:16:39;7.72;;;2.90;;
14766;SDS011;7475;53.558;9.970;2023-07-30T11:19:11;8.43;;;2.55;;
14766;SDS011;7475;53.558;9.970;2023-07-30T11:21:43;7.50;;;2.80;;
14766;SDS011;7475;53.558;9.970;2023-07-30T11:24:09;6.30;;;2.30;;
14766;SDS011;7475;53.558;9.970;2023-07-30T11:26:34;4.40;;;2.13;;
14766;SDS011;7475;53.558;9.970;2023-07-30T11:28:59;7.63;;;2.50;;
14766;SDS011;7475;53.558;9.970;2023-07-30T11:31:24;5.33;;;2.30;;
14766;SDS011;7475;53.558;9.970;2023-07-30T11:33:52;5.85;;;2.47;;
14766;SDS011;7475;53.558;9.970;2023-07-30T11:36:18;7.13;;;2.22;;
14766;SDS011;7475;53.558;9.970;2023-07-30T11:38:44;4.32;;;1.77;;
14766;SDS011;7475;53.558;9.970;2023-07-30T11:41:10;7.78;;;2.60;;
14766;SDS011;7475;53.558;9.970;2023-07-30T11:43:36;5.63;;;1.90;;
14766;SDS011;7475;53.558;9.970;2023-07-30T11:46:05;5.07;;;2.40;;
14766;SDS011;7475;53.558;9.970;2023-07-30T11:48:31;5.85;;;1.90;;
14766;SDS011;7475;53.558;9.970;2023-07-30T11:50:56;6.37;;;1.93;;
14766;SDS011;7475;53.558;9.970;2023-07-30T11:53:21;4.47;;;1.80;;
14766;SDS011;7475;53.558;9.970;2023-07-30T11:55:46;7.43;;;2.50;;
14766;SDS011;7475;53.558;9.970;2023-07-30T11:58:12;7.60;;;2.30;;
14766;SDS011;7475;53.558;9.970;2023-07-30T12:00:40;7.25;;;1.88;;
14766;SDS011;7475;53.558;9.970;2023-07-30T12:03:08;7.28;;;2.30;;
14766;SDS011;7475;53.558;9.970;2023-07-30T12:05:34;9.35;;;2.30;;
14766;SDS011;7475;53.558;9.970;2023-07-30T12:08:00;7.25;;;2.45;;
14766;SDS011;7475;53.558;9.970;2023-07-30T12:10:28;4.95;;;2.08;;
14766;SDS011;7475;53.558;9.970;2023-07-30T12:12:53;9.82;;;2.47;;
14766;SDS011;7475;53.558;9.970;2023-07-30T12:15:18;8.00;;;2.28;;
14766;SDS011;7475;53.558;9.970;2023-07-30T12:17:43;4.55;;;2.10;;
14766;SDS011;7475;53.558;9.970;2023-07-30T12:20:09;6.30;;;2.07;;
14766;SDS011;7475;53.558;9.970;2023-07-30T12:22:34;4.93;;;2.15;;
14766;SDS011;7475;53.558;9.970;2023-07-30T12:25:03;4.88;;;2.30;;
14766;SDS011;7475;53.558;9.970;2023-07-30T12:27:29;6.35;;;2.78;;
14766;SDS011;7475;53.558;9.970;2023-07-30T12:29:54;6.95;;;2.28;;
14766;SDS011;7475;53.558;9.970;2023-07-30T12:32:20;6.63;;;1.83;;
14766;SDS011;7475;53.558;9.970;2023-07-30T12:34:45;6.20;;;2.00;;
14766;SDS011;7475;53.558;9.970;2023-07-30T12:37:10;5.90;;;2.42;;
14766;SDS011;7475;53.558;9.970;2023-07-30T12:39:35;6.32;;;2.22;;
14766;SDS011;7475;53.558;9.970;2023-07-30T12:42:00;4.50;;;1.63;;
14766;SDS011;7475;53.558;9.970;2023-07-30T12:44:26;4.07;;;1.43;;
14766;SDS011;7475;53.558;9.970;2023-07-30T12:46:51;6.95;;;1.92;;
14766;SDS011;7475;53.558;9.970;2023-07-30T12:49:16;5.07;;;2.13;;
14766;SDS011;7475;53.558;9.970;2023-07-30T12:51:41;4.03;;;1.60;;
14766;SDS011;7475;53.558;9.970;2023-07-30T12:54:06;6.67;;;2.37;;
14766;SDS011;7475;53.558;9.970;2023-07-30T12:56:32;6.50;;;2.50;;
14766;SDS011;7475;53.558;9.970;2023-07-30T12:58:57;7.80;;;2.88;;
14766;SDS011;7475;53.558;9.970;2023-07-30T13:01:22;8.07;;;2.80;;
14766;SDS011;7475;53.558;9.970;2023-07-30T13:03:48;6.65;;;2.20;;
14766;SDS011;7475;53.558;9.970;2023-07-30T13:06:15;7.35;;;2.60;;
14766;SDS011;7475;53.558;9.970;2023-07-30T13:08:40;5.28;;;2.00;;
14766;SDS011;7475;53.558;9.970;2023-07-30T13:11:05;8.88;;;2.72;;
14766;SDS011;7475;53.558;9.970;2023-07-30T13:13:30;10.50;;;3.20;;
14766;SDS011;7475;53.558;9.970;2023-07-30T13:15:56;3.90;;;1.50;;
14766;SDS011;7475;53.558;9.970;2023-07-30T13:18:26;7.00;;;2.42;;
14766;SDS011;7475;53.558;9.970;2023-07-30T13:20:51;6.45;;;1.80;;
14766;SDS011;7475;53.558;9.970;2023-07-30T13:23:16;9.90;;;2.20;;
14766;SDS011;7475;53.558;9.970;2023-07-30T13:25:42;7.00;;;2.55;;
14766;SDS011;7475;53.558;9.970;2023-07-30T13:28:07;7.73;;;2.07;;
14766;SDS011;7475;53.558;9.970;2023-07-30T13:30:32;10.27;;;2.80;;
14766;SDS011;7475;53.558;9.970;2023-07-30T13:32:57;6.50;;;2.53;;
14766;SDS011;7475;53.558;9.970;2023-07-30T13:35:22;7.30;;;3.00;;
14766;SDS011;7475;53.558;9.970;2023-07-30T13:37:48;6.63;;;2.70;;
14766;SDS011;7475;53.558;9.970;2023-07-30T13:40:13;7.63;;;2.60;;
14766;SDS011;7475;53.558;9.970;2023-07-30T13:42:38;7.73;;;2.67;;
14766;SDS011;7475;53.558;9.970;2023-07-30T13:45:03;10.10;;;3.50;;
14766;SDS011;7475;53.558;9.970;2023-07-30T13:47:29;8.88;;;2.50;;
14766;SDS011;7475;53.558;9.970;2023-07-30T13:49:54;8.70;;;3.30;;
14766;SDS011;7475;53.558;9.970;2023-07-30T13:52:20;11.18;;;3.92;;
14766;SDS011;7475;53.558;9.970;2023-07-30T13:54:45;7.00;;;3.00;;
14766;SDS011;7475;53.558;9.970;2023-07-30T13:57:10;6.07;;;2.60;;
14766;SDS011;7475;53.558;9.970;2023-07-30T13:59:36;6.68;;;2.88;;
14766;SDS011;7475;53.558;9.970;2023-07-30T14:02:01;4.93;;;2.40;;
14766;SDS011;7475;53.558;9.970;2023-07-30T14:04:27;8.20;;;3.08;;
14766;SDS011;7475;53.558;9.970;2023-07-30T14:06:52;6.20;;;3.13;;
14766;SDS011;7475;53.558;9.970;2023-07-30T14:09:17;9.33;;;3.47;;
14766;SDS011;7475;53.558;9.970;2023-07-30T14:11:42;5.70;;;2.67;;
14766;SDS011;7475;53.558;9.970;2023-07-30T14:14:10;4.97;;;2.17;;
14766;SDS011;7475;53.558;9.970;2023-07-30T14:16:35;6.75;;;2.85;;
14766;SDS011;7475;53.558;9.970;2023-07-30T14:19:01;3.75;;;2.40;;
14766;SDS011;7475;53.558;9.970;2023-07-30T14:21:26;4.68;;;1.70;;
14766;SDS011;7475;53.558;9.970;2023-07-30T14:23:52;3.93;;;1.80;;
14766;SDS011;7475;53.558;9.970;2023-07-30T14:26:17;4.57;;;2.30;;
14766;SDS011;7475;53.558;9.970;2023-07-30T14:28:42;3.87;;;1.20;;
14766;SDS011;7475;53.558;9.970;2023-07-30T14:31:07;5.20;;;2.40;;
14766;SDS011;7475;53.558;9.970;2023-07-30T14:33:32;4.03;;;1.30;;
14766;SDS011;7475;53.558;9.970;2023-07-30T14:35:58;4.47;;;1.60;;
14766;SDS011;7475;53.558;9.970;2023-07-30T14:38:23;3.55;;;1.67;;
14766;SDS011;7475;53.558;9.970;2023-07-30T14:40:48;3.50;;;1.60;;
14766;SDS011;7475;53.558;9.970;2023-07-30T14:43:14;4.00;;;1.30;;
14766;SDS011;7475;53.558;9.970;2023-07-30T14:45:39;3.73;;;1.70;;